createdAt,value
2023-05-04T06:26:17.334Z,76.84
2023-05-04T06:27:17.286Z,76.44
2023-05-04T06:28:17.469Z,75.14
2023-05-04T06:29:30.302Z,78.52
2023-05-04T06:30:30.290Z,77.80
2023-05-04T06:31:30.358Z,78.35
2023-05-04T06:32:30.304Z,78.08
2023-05-04T06:33:30.258Z,79.85
2023-05-04T06:34:30.258Z,78.38
2023-05-04T06:35:30.268Z,78.90
2023-05-04T06:36:30.253Z,81.62
2023-05-04T06:37:30.216Z,80.56
2023-05-04T06:38:30.204Z,78.85
2023-05-04T06:39:30.194Z,78.62
2023-05-04T06:40:30.214Z,79.40
2023-05-04T06:41:30.195Z,76.70
2023-05-04T06:42:30.160Z,75.78
2023-05-04T06:43:30.155Z,73.43
2023-05-04T06:44:30.140Z,74.69
2023-05-04T06:45:30.148Z,75.17
2023-05-04T06:46:30.116Z,74.86
2023-05-04T06:47:30.126Z,75.57
2023-05-04T06:48:30.112Z,74.04
2023-05-04T06:49:30.087Z,71.01
2023-05-04T06:50:30.292Z,69.04
2023-05-04T06:51:30.073Z,69.82
2023-05-04T06:52:30.060Z,69.35
2023-05-04T06:53:30.058Z,66.60
2023-05-04T06:54:30.030Z,64.00
2023-05-04T06:55:30.023Z,64.14
2023-05-04T06:56:30.015Z,64.72
2023-05-04T06:57:30.131Z,63.70
2023-05-04T06:58:29.990Z,65.26
2023-05-04T06:59:29.985Z,65.61
2023-05-04T07:00:29.966Z,64.69
2023-05-04T07:01:29.982Z,65.17
2023-05-04T07:02:29.990Z,63.98
2023-05-04T07:03:29.954Z,63.65
2023-05-04T07:04:29.930Z,62.35
2023-05-04T07:05:29.931Z,62.50
2023-05-04T07:06:29.904Z,61.02
2023-05-04T07:07:29.896Z,58.85
2023-05-04T07:08:29.882Z,59.42
2023-05-04T07:09:29.874Z,59.17
2023-05-04T07:10:29.867Z,61.67
2023-05-04T07:11:29.852Z,63.75
2023-05-04T07:12:29.904Z,62.12
2023-05-04T07:13:29.852Z,61.05
2023-05-04T07:14:29.819Z,61.45
2023-05-04T07:15:30.024Z,59.93
2023-05-04T07:16:29.819Z,59.01
2023-05-04T07:17:29.849Z,58.81
2023-05-04T07:18:29.782Z,58.45
2023-05-04T07:19:29.767Z,60.39
2023-05-04T07:20:29.753Z,60.67
2023-05-04T07:21:29.796Z,59.62
2023-05-04T07:22:29.749Z,59.24
2023-05-04T07:23:29.725Z,60.13
2023-05-04T07:24:29.717Z,59.08
2023-05-04T07:25:29.703Z,57.79
2023-05-04T07:26:29.694Z,59.14
2023-05-04T07:27:29.681Z,59.62
2023-05-04T07:28:29.668Z,61.60
2023-05-04T07:29:29.677Z,57.81
2023-05-04T07:30:29.664Z,57.76
2023-05-04T07:31:30.780Z,58.06
2023-05-04T07:32:29.632Z,59.60
2023-05-04T07:33:29.623Z,56.00
2023-05-04T07:34:41.905Z,58.17
2023-05-04T07:35:29.600Z,53.93
2023-05-04T07:36:29.585Z,52.16
2023-05-04T07:37:29.577Z,50.64
2023-05-04T07:38:29.566Z,50.92
2023-05-04T07:39:29.556Z,51.37
2023-05-04T07:40:29.542Z,52.74
2023-05-04T07:41:29.534Z,53.11
2023-05-04T07:42:29.521Z,55.20
2023-05-04T07:43:29.520Z,55.85
2023-05-04T07:44:29.582Z,55.55
2023-05-04T07:45:29.617Z,56.97
2023-05-04T07:46:29.521Z,57.15
2023-05-04T07:47:29.492Z,57.55
2023-05-04T07:48:29.459Z,60.00
2023-05-04T07:49:29.454Z,54.58
2023-05-04T07:50:29.440Z,55.26
2023-05-04T07:51:29.433Z,53.19
2023-05-04T07:52:29.419Z,51.85
2023-05-04T07:53:29.417Z,52.00
2023-05-04T07:54:29.404Z,49.96
2023-05-04T07:55:29.388Z,50.57
2023-05-04T07:56:29.378Z,49.63
2023-05-04T07:57:29.501Z,50.57
2023-05-04T07:58:29.358Z,50.87
2023-05-04T07:59:29.350Z,48.57
2023-05-04T08:00:29.342Z,49.73
2023-05-04T08:01:29.556Z,48.55
2023-05-04T08:02:29.403Z,48.80
2023-05-04T08:03:29.309Z,49.29
2023-05-04T08:04:29.295Z,49.06
2023-05-04T08:05:29.290Z,48.00
2023-05-04T08:06:29.277Z,48.88
2023-05-04T08:07:29.268Z,49.34
2023-05-04T08:08:29.257Z,46.82
2023-05-04T08:09:29.253Z,45.72
2023-05-04T08:10:29.238Z,48.00
2023-05-04T08:11:29.228Z,48.18
2023-05-04T08:12:29.254Z,47.95
2023-05-04T08:13:29.352Z,47.55
2023-05-04T08:14:29.202Z,45.25
2023-05-04T08:15:29.187Z,48.10
2023-05-04T08:16:29.196Z,48.77
2023-05-04T08:17:29.215Z,48.75
2023-05-04T08:18:29.162Z,48.95
2023-05-04T08:19:29.146Z,49.51
2023-05-04T08:20:29.143Z,49.41
2023-05-04T08:21:29.124Z,48.07
2023-05-04T08:22:29.116Z,47.82
2023-05-04T08:23:29.110Z,49.84
2023-05-04T08:24:29.103Z,51.07
2023-05-04T08:25:29.087Z,49.84
2023-05-04T08:26:29.076Z,51.95
2023-05-04T08:27:29.073Z,50.09
2023-05-04T08:28:29.057Z,49.09
2023-05-04T08:29:29.059Z,49.43
2023-05-04T08:30:29.037Z,50.62
2023-05-04T08:31:29.077Z,49.21
2023-05-04T08:32:30.497Z,49.18
2023-05-04T08:33:29.027Z,50.39
2023-05-04T08:34:28.996Z,51.40
2023-05-04T08:35:28.995Z,52.64
2023-05-04T08:36:28.982Z,51.70
2023-05-04T08:37:28.973Z,49.76
2023-05-04T08:38:28.961Z,48.41
2023-05-04T08:39:28.962Z,46.47
2023-05-04T08:40:28.952Z,46.63
2023-05-04T08:41:28.934Z,45.73
2023-05-04T08:42:28.925Z,49.37
2023-05-04T08:43:28.912Z,48.37
2023-05-04T08:44:28.904Z,47.82
2023-05-04T08:45:28.933Z,47.17
2023-05-04T08:46:28.882Z,49.88
2023-05-04T08:47:29.225Z,46.24
2023-05-04T08:48:28.872Z,45.01
2023-05-04T08:49:28.916Z,45.04
2023-05-04T08:50:28.847Z,44.66
2023-05-04T08:51:28.835Z,45.48
2023-05-04T08:52:28.828Z,46.61
2023-05-04T08:53:28.815Z,46.23
2023-05-04T08:54:28.823Z,48.32
2023-05-04T08:55:28.795Z,45.66
2023-05-04T08:56:28.782Z,44.80
2023-05-04T08:57:28.776Z,45.67
2023-05-04T08:58:28.776Z,47.28
2023-05-04T08:59:28.756Z,46.61
2023-05-04T09:00:28.805Z,46.77
2023-05-04T09:01:28.827Z,43.71
2023-05-04T09:02:28.774Z,42.97
2023-05-04T09:03:28.808Z,44.47
2023-05-04T09:04:29.746Z,43.79
2023-05-04T09:05:28.721Z,45.05
2023-05-04T09:06:28.692Z,46.92
2023-05-04T09:07:28.677Z,48.29
2023-05-04T09:08:28.663Z,45.50
2023-05-04T09:09:28.726Z,43.06
2023-05-04T09:10:29.695Z,44.70
2023-05-04T09:11:28.638Z,48.62
2023-05-04T09:12:28.655Z,47.09
2023-05-04T09:13:28.621Z,46.32
2023-05-04T09:14:28.601Z,43.92
2023-05-04T09:15:28.597Z,43.29
2023-05-04T09:16:28.617Z,46.88
2023-05-04T09:17:28.601Z,42.17
2023-05-04T09:18:28.619Z,42.33
2023-05-04T09:19:28.568Z,45.06
2023-05-04T09:20:28.554Z,45.08
2023-05-04T09:21:28.627Z,46.66
2023-05-04T09:22:28.890Z,44.87
2023-05-04T09:23:28.597Z,44.79
2023-05-04T09:24:28.534Z,46.47
2023-05-04T09:25:28.515Z,46.66
2023-05-04T09:26:28.493Z,44.56
2023-05-04T09:27:28.481Z,46.60
2023-05-04T09:28:28.895Z,46.01
2023-05-04T09:29:28.464Z,46.41
2023-05-04T09:30:28.453Z,45.77
2023-05-04T09:31:28.540Z,43.79
2023-05-04T09:32:28.462Z,44.60
2023-05-04T09:33:28.430Z,47.99
2023-05-04T09:34:28.617Z,47.72
2023-05-04T09:35:33.162Z,43.33
2023-05-04T09:36:28.398Z,43.11
2023-05-04T09:37:28.488Z,45.19
2023-05-04T09:38:28.382Z,41.29
2023-05-04T09:39:28.371Z,43.05
2023-05-04T09:40:28.355Z,43.29
2023-05-04T09:41:28.348Z,42.51
2023-05-04T09:42:28.346Z,42.31
2023-05-04T09:43:28.328Z,44.21
2023-05-04T09:44:29.582Z,44.25
2023-05-04T09:45:28.309Z,46.16
2023-05-04T09:46:28.360Z,41.77
2023-05-04T09:47:28.333Z,42.15
2023-05-04T09:48:28.281Z,43.53
2023-05-04T09:49:28.276Z,40.93
2023-05-04T09:50:28.261Z,41.67
2023-05-04T09:51:28.250Z,43.23
2023-05-04T09:52:28.241Z,45.72
2023-05-04T09:53:28.268Z,44.95
2023-05-04T09:54:28.226Z,44.71
2023-05-04T09:55:28.219Z,40.19
2023-05-04T09:56:28.207Z,39.93
2023-05-04T09:57:28.192Z,38.30
2023-05-04T09:58:28.184Z,37.90
2023-05-04T09:59:28.173Z,38.73
2023-05-04T10:00:28.169Z,39.80
2023-05-04T10:01:28.154Z,38.81
2023-05-04T10:02:28.238Z,37.34
2023-05-04T10:03:28.140Z,40.65
2023-05-04T10:04:28.132Z,39.07
2023-05-04T10:05:28.156Z,40.67
2023-05-04T10:06:28.103Z,42.95
2023-05-04T10:07:28.094Z,40.10
2023-05-04T10:08:28.104Z,40.95
2023-05-04T10:09:28.106Z,38.09
2023-05-04T10:10:28.269Z,38.89
2023-05-04T10:11:28.054Z,38.07
2023-05-04T10:12:28.096Z,36.92
2023-05-04T10:13:28.053Z,38.54
2023-05-04T10:14:28.027Z,36.55
2023-05-04T10:15:28.018Z,37.67
2023-05-04T10:16:28.021Z,39.80
2023-05-04T10:17:28.029Z,39.22
2023-05-04T10:18:27.991Z,40.11
2023-05-04T10:19:27.975Z,40.51
2023-05-04T10:20:27.969Z,39.80
2023-05-04T10:21:27.960Z,40.71
2023-05-04T10:22:27.956Z,44.65
2023-05-04T10:23:27.938Z,41.09
2023-05-04T10:24:27.933Z,39.14
2023-05-04T10:25:28.032Z,39.40
2023-05-04T10:26:27.912Z,35.54
2023-05-04T10:27:27.904Z,38.12
2023-05-04T10:28:27.918Z,40.83
2023-05-04T10:29:27.880Z,36.92
2023-05-04T10:30:27.872Z,36.98
2023-05-04T10:31:27.904Z,39.30
2023-05-04T10:32:27.890Z,39.01
2023-05-04T10:33:28.042Z,37.48
2023-05-04T10:34:27.844Z,38.76
2023-05-04T10:35:27.878Z,39.73
2023-05-04T10:36:27.812Z,37.93
2023-05-04T10:37:27.803Z,37.59
2023-05-04T10:38:27.807Z,36.45
2023-05-04T10:39:27.817Z,40.19
2023-05-04T10:40:27.979Z,37.98
2023-05-04T10:41:27.788Z,38.97
2023-05-04T10:42:27.779Z,41.23
2023-05-04T10:43:27.745Z,39.67
2023-05-04T10:44:27.733Z,35.57
2023-05-04T10:45:27.731Z,37.10
2023-05-04T10:46:27.715Z,39.15
2023-05-04T10:47:27.730Z,39.18
2023-05-04T10:48:27.695Z,36.37
2023-05-04T10:49:27.691Z,36.96
2023-05-04T10:50:27.684Z,39.72
2023-05-04T10:51:35.709Z,37.51
2023-05-04T10:52:28.685Z,38.39
2023-05-04T10:53:27.644Z,38.34
2023-05-04T10:54:27.638Z,39.45
2023-05-04T10:55:27.623Z,40.14
2023-05-04T10:56:27.614Z,38.86
2023-05-04T10:57:27.628Z,39.48
2023-05-04T10:58:27.806Z,41.23
2023-05-04T10:59:27.588Z,42.77
2023-05-04T11:00:27.577Z,43.21
2023-05-04T11:01:27.569Z,37.30
2023-05-04T11:02:27.690Z,39.59
2023-05-04T11:03:27.745Z,39.18
2023-05-04T11:04:27.535Z,38.66
2023-05-04T11:05:27.529Z,38.33
2023-05-04T11:06:27.541Z,37.89
2023-05-04T11:07:27.515Z,36.26
2023-05-04T11:08:27.518Z,37.12
2023-05-04T11:09:27.485Z,36.51
2023-05-04T11:10:27.481Z,36.48
2023-05-04T11:11:27.465Z,36.99
2023-05-04T11:12:27.457Z,34.41
2023-05-04T11:13:27.480Z,35.04
2023-05-04T11:14:27.439Z,34.85
2023-05-04T11:15:27.428Z,35.19
2023-05-04T11:16:27.504Z,41.73
2023-05-04T11:17:28.741Z,34.92
2023-05-04T11:18:27.400Z,32.84
2023-05-04T11:19:27.394Z,35.80
2023-05-04T11:20:27.387Z,36.18
2023-05-04T11:21:27.376Z,34.97
2023-05-04T11:22:27.361Z,36.36
2023-05-04T11:23:27.352Z,35.26
2023-05-04T11:24:27.342Z,32.39
2023-05-04T11:25:27.354Z,32.20
2023-05-04T11:26:27.323Z,33.18
2023-05-04T11:27:27.311Z,33.88
2023-05-04T11:28:27.306Z,38.82
2023-05-04T11:29:27.323Z,35.80
2023-05-04T11:30:27.289Z,34.86
2023-05-04T11:31:27.344Z,35.47
2023-05-04T11:32:27.273Z,36.38
2023-05-04T11:33:27.256Z,38.38
2023-05-04T11:34:27.249Z,39.02
2023-05-04T11:35:27.241Z,35.79
2023-05-04T11:36:27.233Z,34.05
2023-05-04T11:37:27.215Z,34.21
2023-05-04T11:38:27.207Z,33.61
2023-05-04T11:39:27.191Z,33.91
2023-05-04T11:40:27.183Z,33.86
2023-05-04T11:41:27.173Z,33.66
2023-05-04T11:42:27.161Z,33.63
2023-05-04T11:43:27.152Z,32.72
2023-05-04T11:44:27.144Z,31.50
2023-05-04T11:45:27.159Z,33.32
2023-05-04T11:46:27.202Z,32.08
2023-05-04T11:47:27.125Z,32.48
2023-05-04T11:48:27.104Z,33.58
2023-05-04T11:49:27.092Z,32.11
2023-05-04T11:50:27.087Z,34.49
2023-05-04T11:51:27.075Z,32.67
2023-05-04T11:52:27.067Z,33.20
2023-05-04T11:53:27.057Z,30.91
2023-05-04T11:54:27.046Z,32.20
2023-05-04T11:55:27.034Z,32.26
2023-05-04T11:56:27.027Z,31.96
2023-05-04T11:57:27.019Z,32.84
2023-05-04T11:58:27.019Z,28.56
2023-05-04T11:59:27.007Z,29.32
2023-05-04T12:00:26.993Z,31.50
2023-05-04T12:01:27.005Z,32.34
2023-05-04T12:02:27.004Z,34.91
2023-05-04T12:03:32.691Z,29.63
2023-05-04T12:04:28.051Z,32.30
2023-05-04T12:05:26.944Z,33.99
2023-05-04T12:06:26.927Z,35.65
2023-05-04T12:07:26.923Z,32.97
2023-05-04T12:08:26.906Z,32.98
2023-05-04T12:09:26.917Z,35.16
2023-05-04T12:10:26.886Z,35.82
2023-05-04T12:11:26.890Z,36.49
2023-05-04T12:12:27.069Z,32.78
2023-05-04T12:13:26.856Z,34.85
2023-05-04T12:14:26.846Z,33.00
2023-05-04T12:15:26.836Z,30.04
2023-05-04T12:16:26.888Z,29.87
2023-05-04T12:17:26.849Z,32.24
2023-05-04T12:18:26.808Z,31.68
2023-05-04T12:19:26.809Z,31.32
2023-05-04T12:20:26.997Z,32.00
2023-05-04T12:21:26.774Z,32.78
2023-05-04T12:22:26.766Z,34.47
2023-05-04T12:23:26.764Z,33.56
2023-05-04T12:24:26.755Z,30.63
2023-05-04T12:25:26.734Z,33.76
2023-05-04T12:26:26.726Z,31.32
2023-05-04T12:27:26.714Z,28.26
2023-05-04T12:28:26.723Z,31.02
2023-05-04T12:29:26.715Z,30.67
2023-05-04T12:30:26.685Z,31.45
2023-05-04T12:31:26.692Z,31.36
2023-05-04T12:32:26.708Z,30.64
2023-05-04T12:33:26.680Z,30.85
2023-05-04T12:34:26.648Z,30.34
2023-05-04T12:35:26.638Z,32.00
2023-05-04T12:36:26.632Z,29.86
2023-05-04T12:37:26.615Z,32.16
2023-05-04T12:38:26.638Z,32.89
2023-05-04T12:39:26.609Z,32.29
2023-05-04T12:40:28.773Z,32.50
2023-05-04T12:41:26.573Z,32.57
2023-05-04T12:42:26.569Z,32.75
2023-05-04T12:43:26.575Z,31.83
2023-05-04T12:44:26.546Z,28.50
2023-05-04T12:45:26.532Z,31.12
2023-05-04T12:46:26.542Z,31.23
2023-05-04T12:47:26.549Z,32.87
2023-05-04T12:48:26.510Z,34.77
2023-05-04T12:49:26.537Z,32.67
2023-05-04T12:50:26.484Z,31.65
2023-05-04T12:51:26.473Z,30.54
2023-05-04T12:52:26.462Z,29.25
2023-05-04T12:53:26.450Z,27.32
2023-05-04T12:54:26.466Z,29.82
2023-05-04T12:55:26.430Z,31.72
2023-05-04T12:56:26.424Z,32.89
2023-05-04T12:57:26.409Z,32.98
2023-05-04T12:58:26.412Z,32.67
2023-05-04T12:59:26.401Z,30.70
2023-05-04T13:00:26.376Z,31.21
2023-05-04T13:01:26.392Z,32.67
2023-05-04T13:02:26.400Z,31.99
2023-05-04T13:03:26.477Z,31.71
2023-05-04T13:04:26.340Z,32.19
2023-05-04T13:05:26.374Z,34.06
2023-05-04T13:06:26.321Z,31.20
2023-05-04T13:07:26.311Z,32.01
2023-05-04T13:08:26.313Z,32.47
2023-05-04T13:09:26.284Z,34.21
2023-05-04T13:10:26.285Z,31.14
2023-05-04T13:11:26.268Z,34.01
2023-05-04T13:12:26.269Z,32.97
2023-05-04T13:13:26.390Z,31.34
2023-05-04T13:14:26.240Z,32.23
2023-05-04T13:15:26.232Z,29.96
2023-05-04T13:16:26.306Z,29.80
2023-05-04T13:17:26.235Z,31.53
2023-05-04T13:18:26.211Z,32.27
2023-05-04T13:19:26.390Z,32.08
2023-05-04T13:20:26.188Z,29.93
2023-05-04T13:21:26.196Z,30.38
2023-05-04T13:22:26.162Z,30.95
2023-05-04T13:23:26.191Z,32.70
2023-05-04T13:24:26.145Z,32.00
2023-05-04T13:25:26.133Z,29.54
2023-05-04T13:26:26.121Z,29.29
2023-05-04T13:27:26.113Z,29.22
2023-05-04T13:28:26.108Z,31.90
2023-05-04T13:29:26.088Z,32.24
2023-05-04T13:30:26.090Z,27.65
2023-05-04T13:31:26.100Z,30.64
2023-05-04T13:32:26.074Z,32.82
2023-05-04T13:33:29.981Z,30.40
2023-05-04T13:34:26.036Z,32.46
2023-05-04T13:35:26.025Z,29.77
2023-05-04T13:36:26.020Z,29.59
2023-05-04T13:37:26.030Z,31.26
2023-05-04T13:38:25.999Z,30.95
2023-05-04T13:39:25.986Z,30.34
2023-05-04T13:40:25.976Z,32.06
2023-05-04T13:41:25.965Z,31.84
2023-05-04T13:42:25.958Z,31.53
2023-05-04T13:43:25.945Z,31.10
2023-05-04T13:44:25.935Z,33.19
2023-05-04T13:45:25.931Z,32.97
2023-05-04T13:46:25.964Z,30.70
2023-05-04T13:47:26.002Z,32.66
2023-05-04T13:48:26.243Z,31.44
2023-05-04T13:49:25.884Z,28.77
2023-05-04T13:50:25.874Z,31.20
2023-05-04T13:51:25.862Z,33.98
2023-05-04T13:52:25.860Z,32.18
2023-05-04T13:53:25.902Z,29.19
2023-05-04T13:54:25.833Z,31.65
2023-05-04T13:55:25.821Z,32.89
2023-05-04T13:56:25.818Z,32.06
2023-05-04T13:57:25.802Z,32.34
2023-05-04T13:58:25.793Z,30.55
2023-05-04T13:59:25.782Z,30.44
2023-05-04T14:00:25.798Z,29.25
2023-05-04T14:01:25.842Z,28.94
2023-05-04T14:02:26.024Z,30.35
2023-05-04T14:03:25.800Z,30.40
2023-05-04T14:04:25.775Z,30.61
2023-05-04T14:05:25.790Z,31.23
2023-05-04T14:06:25.787Z,33.00
2023-05-04T14:07:59.619Z,31.07
2023-05-04T14:08:59.634Z,32.26
2023-05-04T14:09:59.601Z,31.98
2023-05-04T14:10:59.598Z,31.95
2023-05-04T14:11:59.579Z,32.75
2023-05-04T14:12:59.592Z,33.25
2023-05-04T14:13:59.559Z,32.92
2023-05-04T14:14:59.548Z,32.39
2023-05-04T14:15:59.559Z,32.67
2023-05-04T14:16:59.765Z,32.87
2023-05-04T14:17:59.537Z,30.88
2023-05-04T14:18:59.506Z,31.70
2023-05-04T14:19:59.498Z,34.61
2023-05-04T14:20:59.481Z,32.11
2023-05-04T14:21:59.476Z,34.10
2023-05-04T14:22:59.474Z,32.69
2023-05-04T14:23:59.462Z,34.68
2023-05-04T14:24:59.529Z,33.32
2023-05-04T14:25:59.436Z,33.80
2023-05-04T14:26:59.429Z,33.37
2023-05-04T14:27:59.414Z,32.86
2023-05-04T14:28:59.406Z,33.37
2023-05-04T14:29:59.396Z,32.66
2023-05-04T14:30:59.384Z,31.93
2023-05-04T14:31:59.431Z,30.72
2023-05-04T14:32:59.418Z,31.47
2023-05-04T14:33:59.353Z,34.34
2023-05-04T14:34:59.343Z,31.54
2023-05-04T14:35:59.339Z,35.58
2023-05-04T14:36:59.540Z,34.97
2023-05-04T14:37:59.312Z,35.15
2023-05-04T14:38:59.304Z,34.03
2023-05-04T14:39:59.294Z,34.11
2023-05-04T14:40:59.303Z,33.70
2023-05-04T14:41:59.281Z,33.02
2023-05-04T14:42:59.260Z,32.44
2023-05-04T14:43:59.253Z,34.41
2023-05-04T14:44:59.236Z,35.77
2023-05-04T14:45:59.363Z,36.94
2023-05-04T14:46:59.216Z,33.43
2023-05-04T14:47:59.335Z,34.03
2023-05-04T14:48:59.202Z,34.19
2023-05-04T14:49:59.194Z,33.37
2023-05-04T14:50:59.182Z,33.86
2023-05-04T14:51:59.174Z,30.79
2023-05-04T14:52:59.165Z,32.95
2023-05-04T14:53:59.155Z,32.58
2023-05-04T14:54:59.142Z,33.34
2023-05-04T14:55:59.133Z,31.88
2023-05-04T14:56:59.250Z,32.79
2023-05-04T14:57:59.117Z,34.31
2023-05-04T14:58:59.305Z,32.89
2023-05-04T14:59:59.090Z,34.47
2023-05-04T15:00:59.135Z,32.87
2023-05-04T15:01:59.279Z,34.85
2023-05-04T15:02:59.153Z,31.98
2023-05-04T15:03:59.114Z,33.40
2023-05-04T15:04:59.048Z,32.18
2023-05-04T15:05:59.038Z,34.26
2023-05-04T15:06:59.024Z,31.59
2023-05-04T15:07:59.014Z,31.95
2023-05-04T15:08:59.000Z,30.76
2023-05-04T15:09:59.000Z,31.97
2023-05-04T15:10:58.987Z,33.45
2023-05-04T15:11:58.982Z,31.54
2023-05-04T15:12:59.058Z,31.97
2023-05-04T15:13:58.962Z,31.28
2023-05-04T15:14:58.946Z,31.95
2023-05-04T15:15:58.996Z,31.23
2023-05-04T15:16:58.922Z,31.04
2023-05-04T15:17:58.953Z,31.68
2023-05-04T15:18:58.905Z,32.26
2023-05-04T15:19:58.889Z,32.15
2023-05-04T15:20:58.879Z,35.58
2023-05-04T15:21:58.869Z,33.72
2023-05-04T15:22:59.061Z,34.62
2023-05-04T15:23:58.854Z,32.95
2023-05-04T15:24:58.844Z,34.03
2023-05-04T15:25:58.828Z,35.24
2023-05-04T15:26:58.821Z,35.62
2023-05-04T15:27:58.810Z,35.30
2023-05-04T15:28:58.814Z,35.68
2023-05-04T15:29:58.812Z,34.21
2023-05-04T15:30:58.785Z,34.54
2023-05-04T15:31:58.807Z,34.34
2023-05-04T15:32:58.793Z,34.10
2023-05-04T15:33:58.749Z,36.60
2023-05-04T15:35:05.366Z,38.57
2023-05-04T15:35:59.760Z,35.88
2023-05-04T15:36:58.720Z,36.08
2023-05-04T15:37:58.712Z,36.10
2023-05-04T15:38:58.697Z,36.28
2023-05-04T15:40:00.400Z,35.30
2023-05-04T15:40:58.676Z,36.18
2023-05-04T15:41:58.681Z,36.18
2023-05-04T15:42:58.688Z,35.38
2023-05-04T15:43:58.659Z,36.20
2023-05-04T15:44:58.686Z,34.82
2023-05-04T15:45:58.627Z,35.30
2023-05-04T15:46:58.681Z,35.22
2023-05-04T15:47:58.674Z,34.71
2023-05-04T15:48:58.596Z,34.51
2023-05-04T15:49:58.592Z,35.50
2023-05-04T15:50:58.596Z,35.00
2023-05-04T15:51:58.567Z,35.00
2023-05-04T15:52:58.558Z,35.62
2023-05-04T15:53:58.545Z,36.41
2023-05-04T15:55:00.695Z,35.72
2023-05-04T15:55:58.527Z,38.59
2023-05-04T15:56:58.514Z,35.80
2023-05-04T15:57:58.514Z,35.72
2023-05-04T15:58:58.490Z,37.21
2023-05-04T15:59:58.485Z,35.05
2023-05-04T16:00:58.550Z,36.43
2023-05-04T16:01:58.465Z,38.33
2023-05-04T16:02:58.500Z,34.94
2023-05-04T16:03:58.472Z,38.25
2023-05-04T16:04:58.437Z,37.45
2023-05-04T16:05:58.423Z,37.51
2023-05-04T16:06:58.411Z,36.23
2023-05-04T16:07:58.414Z,38.33
2023-05-04T16:08:58.393Z,36.35
2023-05-04T16:09:58.386Z,36.85
2023-05-04T16:10:58.369Z,36.93
2023-05-04T16:11:58.361Z,36.45
2023-05-04T16:12:58.414Z,36.05
2023-05-04T16:13:58.344Z,36.13
2023-05-04T16:14:58.337Z,37.51
2023-05-04T16:15:58.336Z,35.72
2023-05-04T16:16:58.452Z,36.79
2023-05-04T16:17:58.411Z,36.13
2023-05-04T16:18:58.293Z,35.12
2023-05-04T16:19:58.281Z,37.43
2023-05-04T16:20:58.279Z,36.43
2023-05-04T16:21:58.263Z,36.34
2023-05-04T16:22:58.288Z,36.55
2023-05-04T16:23:58.242Z,36.12
2023-05-04T16:24:58.431Z,35.35
2023-05-04T16:25:58.231Z,35.26
2023-05-04T16:26:58.210Z,34.94
2023-05-04T16:27:58.222Z,36.34
2023-05-04T16:28:58.192Z,36.93
2023-05-04T16:29:58.182Z,34.52
2023-05-04T16:30:58.242Z,36.95
2023-05-04T16:31:58.165Z,37.01
2023-05-04T16:32:58.186Z,39.22
2023-05-04T16:33:58.143Z,38.44
2023-05-04T16:34:58.168Z,39.24
2023-05-04T16:35:58.123Z,39.02
2023-05-04T16:36:58.115Z,37.45
2023-05-04T16:37:58.099Z,37.51
2023-05-04T16:38:58.093Z,35.54
2023-05-04T16:39:58.081Z,35.74
2023-05-04T16:40:58.072Z,38.14
2023-05-04T16:41:58.068Z,37.54
2023-05-04T16:42:58.052Z,38.06
2023-05-04T16:43:58.043Z,37.53
2023-05-04T16:44:58.038Z,37.95
2023-05-04T16:45:58.115Z,37.86
2023-05-04T16:46:58.020Z,37.17
2023-05-04T16:47:58.067Z,38.86
2023-05-04T16:48:58.018Z,38.34
2023-05-04T16:49:57.984Z,37.96
2023-05-04T16:50:57.970Z,37.26
2023-05-04T16:51:57.970Z,38.96
2023-05-04T16:52:57.952Z,37.45
2023-05-04T16:53:57.967Z,38.44
2023-05-04T16:54:57.928Z,37.67
2023-05-04T16:55:57.923Z,38.03
2023-05-04T16:56:57.911Z,37.73
2023-05-04T16:57:57.914Z,37.23
2023-05-04T16:58:57.888Z,38.72
2023-05-04T16:59:57.884Z,37.68
2023-05-04T17:00:57.870Z,38.58
2023-05-04T17:01:57.904Z,37.86
2023-05-04T17:02:58.093Z,38.68
2023-05-04T17:03:57.879Z,39.99
2023-05-04T17:04:57.851Z,40.49
2023-05-04T17:05:57.818Z,39.99
2023-05-04T17:06:57.805Z,39.78
2023-05-04T17:07:57.800Z,40.10
2023-05-04T17:08:57.796Z,38.88
2023-05-04T17:09:57.799Z,40.29
2023-05-04T17:10:57.777Z,39.80
2023-05-04T17:11:57.824Z,39.59
2023-05-04T17:12:58.198Z,39.59
2023-05-04T17:13:57.739Z,40.10
2023-05-04T17:14:57.725Z,40.51
2023-05-04T17:15:57.736Z,39.81
2023-05-04T17:16:57.705Z,39.71
2023-05-04T17:17:57.750Z,40.03
2023-05-04T17:18:57.690Z,42.51
2023-05-04T17:19:57.691Z,41.25
2023-05-04T17:20:57.686Z,43.07
2023-05-04T17:21:57.653Z,41.97
2023-05-04T17:22:57.664Z,42.47
2023-05-04T17:23:57.631Z,42.19
2023-05-04T17:24:57.631Z,44.33
2023-05-04T17:25:57.608Z,43.83
2023-05-04T17:26:57.600Z,44.33
2023-05-04T17:27:57.595Z,44.65
2023-05-04T17:28:57.583Z,45.17
2023-05-04T17:29:57.577Z,46.66
2023-05-04T17:30:57.557Z,44.67
2023-05-04T17:31:57.587Z,44.15
2023-05-04T17:32:57.630Z,44.75
2023-05-04T17:33:57.531Z,45.37
2023-05-04T17:34:58.462Z,44.58
2023-05-04T17:35:57.503Z,45.42
2023-05-04T17:36:57.519Z,45.20
2023-05-04T17:37:59.057Z,45.70
2023-05-04T17:38:57.470Z,45.90
2023-05-04T17:39:57.501Z,45.59
2023-05-04T17:40:57.469Z,47.52
2023-05-04T17:41:57.443Z,46.60
2023-05-04T17:42:57.528Z,46.32
2023-05-04T17:43:57.423Z,46.62
2023-05-04T17:44:57.413Z,46.35
2023-05-04T17:45:57.431Z,46.04
2023-05-04T17:46:57.392Z,46.20
2023-05-04T17:47:57.439Z,46.92
2023-05-04T17:48:57.371Z,46.72
2023-05-04T17:49:57.359Z,46.35
2023-05-04T17:50:57.352Z,46.55
2023-05-04T17:51:57.338Z,47.65
2023-05-04T17:52:57.353Z,45.64
2023-05-04T17:53:57.327Z,46.35
2023-05-04T17:54:57.309Z,47.14
2023-05-04T17:55:57.308Z,47.05
2023-05-04T17:56:57.298Z,46.64
2023-05-04T17:57:57.279Z,46.97
2023-05-04T17:58:57.274Z,47.69
2023-05-04T17:59:57.255Z,47.77
2023-05-04T18:00:57.260Z,48.17
2023-05-04T18:01:57.256Z,48.37
2023-05-04T18:02:57.319Z,49.07
2023-05-04T18:03:57.262Z,48.84
2023-05-04T18:04:57.200Z,50.61
2023-05-04T18:05:57.194Z,48.62
2023-05-04T18:06:57.184Z,48.52
2023-05-04T18:07:57.178Z,48.29
2023-05-04T18:08:57.190Z,49.62
2023-05-04T18:09:57.149Z,48.14
2023-05-04T18:10:57.145Z,49.75
2023-05-04T18:11:57.126Z,48.92
2023-05-04T18:12:57.133Z,50.25
2023-05-04T18:13:57.118Z,49.75
2023-05-04T18:14:57.126Z,49.22
2023-05-04T18:15:57.107Z,50.05
2023-05-04T18:16:57.086Z,50.75
2023-05-04T18:17:57.118Z,50.15
2023-05-04T18:18:58.402Z,49.17
2023-05-04T18:19:57.044Z,48.97
2023-05-04T18:20:57.035Z,49.35
2023-05-04T18:21:57.031Z,49.85
2023-05-04T18:22:57.015Z,49.67
2023-05-04T18:23:57.012Z,49.15
2023-05-04T18:24:57.014Z,49.37
2023-05-04T18:25:57.003Z,52.08
2023-05-04T18:26:56.973Z,52.01
2023-05-04T18:27:56.968Z,51.53
2023-05-04T18:29:04.217Z,52.91
2023-05-04T18:29:57.968Z,54.65
2023-05-04T18:30:56.931Z,53.44
2023-05-04T18:31:56.945Z,54.38
2023-05-04T18:32:56.972Z,53.60
2023-05-04T18:33:56.901Z,53.17
2023-05-04T18:34:56.893Z,57.00
2023-05-04T18:35:56.879Z,56.95
2023-05-04T18:36:56.882Z,57.25
2023-05-04T18:37:56.860Z,56.77
2023-05-04T18:38:56.850Z,58.66
2023-05-04T18:39:56.835Z,56.34
2023-05-04T18:40:56.848Z,55.63
2023-05-04T18:41:56.817Z,55.31
2023-05-04T18:42:56.807Z,55.84
2023-05-04T18:43:56.795Z,55.94
2023-05-04T18:44:56.786Z,56.27
2023-05-04T18:45:56.787Z,55.69
2023-05-04T18:46:56.775Z,55.51
2023-05-04T18:47:56.814Z,54.15
2023-05-04T18:48:56.749Z,58.19
2023-05-04T18:49:56.742Z,56.60
2023-05-04T18:50:56.727Z,58.79
2023-05-04T18:51:56.709Z,58.14
2023-05-04T18:52:56.705Z,59.83
2023-05-04T18:53:56.690Z,59.42
2023-05-04T18:54:56.680Z,59.14
2023-05-04T18:55:56.669Z,59.35
2023-05-04T18:56:56.681Z,59.71
2023-05-04T18:57:56.654Z,59.91
2023-05-04T18:58:56.645Z,59.88
2023-05-04T18:59:56.633Z,60.99
2023-05-04T19:00:56.660Z,61.70
2023-05-04T19:01:56.616Z,63.85
2023-05-04T19:02:56.651Z,62.13
2023-05-04T19:03:56.645Z,61.25
2023-05-04T19:04:56.620Z,63.28
2023-05-04T19:05:56.586Z,61.56
2023-05-04T19:06:56.556Z,62.46
2023-05-04T19:07:56.540Z,63.61
2023-05-04T19:08:56.764Z,64.39
